X01 weather

Everglades Airpark
Everglades, Florida, United States

Public forecast

Using degrees Fahrenheit for public forecast. Weather courtesy of forecast.io.

METAR (pilot weather report)

Closest report is Marco Island Executive Airport, 17.6 nm (32.6 km) WNW. Retrieved 2019/07/19 10:56 UTC (25 minutes ago):

KMKY 191056Z AUTO 10SM CLR 24/24 A3007 RMK AO2 SLP181 T02440239 $

TAF (pilot weather forecast)

Closest forecast is Naples Municipal Airport, 27.7 nm (51.2 km) NW. Retrieved 2019/07/19 06:30 UTC (5 hours ago):

TAF KAPF 190529Z 1906/2006 06003KT P6SM FEW040 FM191400 13008KT P6SM SCT030 SCT070 FM191800 24010KT P6SM VCTS SCT035CB BKN100 FM192200 30007KT P6SM VCSH SCT030 BKN060